Terminal Aerodrome Forecast
Issued by NWS

Home | Current Version | Previous Version | Text Only | Print | Product List | Glossary On
Versions: 1 2 3 4 5 6 7 8 9 10 11 12 13 14
113
FTUS45 KFGZ 201130
TAFPRC
TAF
KPRC 201130Z 2012/2112 20006KT P6SM BKN030 OVC040
     FM201600 VRB05KT P6SM SCT030 BKN250
     FM210100 19006KT P6SM SCT250=

USA.gov is the U.S. government's official web portal to all federal, state and local government web resources and services.